createdAt,value
2017-12-23T00:01:51.257Z,8.60
2017-12-23T00:04:19.472Z,8.60
2017-12-23T00:06:46.901Z,8.60
2017-12-23T00:09:14.395Z,8.70
2017-12-23T00:11:41.850Z,8.60
2017-12-23T00:14:09.287Z,8.60
2017-12-23T00:16:36.702Z,8.60
2017-12-23T00:19:04.910Z,8.60
2017-12-23T00:21:32.349Z,8.60
2017-12-23T00:23:59.782Z,8.60
2017-12-23T00:26:27.983Z,8.50
2017-12-23T00:28:55.422Z,8.50
2017-12-23T00:31:23.627Z,8.50
2017-12-23T00:33:51.058Z,8.50
2017-12-23T00:36:19.285Z,8.50
2017-12-23T00:38:46.687Z,8.50
2017-12-23T00:41:14.903Z,8.50
2017-12-23T00:43:42.322Z,8.50
2017-12-23T00:46:10.529Z,8.50
2017-12-23T00:48:37.961Z,8.50
2017-12-23T00:51:06.163Z,8.40
2017-12-23T00:53:33.597Z,8.40
2017-12-23T00:56:01.805Z,8.40
2017-12-23T00:58:29.248Z,8.40
2017-12-23T01:00:56.688Z,8.40
2017-12-23T01:03:24.896Z,8.40
2017-12-23T01:05:52.336Z,8.40
2017-12-23T01:08:19.774Z,8.30
2017-12-23T01:10:48.045Z,8.30
2017-12-23T01:13:16.250Z,8.30
2017-12-23T01:15:43.685Z,8.30
2017-12-23T01:18:11.909Z,8.30
2017-12-23T01:20:39.339Z,8.30
2017-12-23T01:23:06.779Z,8.20
2017-12-23T01:25:35.016Z,8.20
2017-12-23T01:28:02.448Z,8.20
2017-12-23T01:30:29.882Z,8.20
2017-12-23T01:32:57.326Z,8.10
2017-12-23T01:35:25.533Z,8.10
2017-12-23T01:37:52.961Z,8.10
2017-12-23T01:40:21.168Z,7.80
2017-12-23T01:42:48.608Z,7.80
2017-12-23T01:45:16.048Z,7.90
2017-12-23T01:47:44.248Z,7.90
2017-12-23T01:50:13.258Z,7.80
2017-12-23T01:52:40.685Z,7.80
2017-12-23T01:55:08.891Z,7.80
2017-12-23T01:57:36.350Z,7.80
2017-12-23T02:00:03.782Z,7.80
2017-12-23T02:02:31.209Z,7.80
2017-12-23T02:04:58.644Z,7.80
2017-12-23T02:07:26.076Z,7.90
2017-12-23T02:09:53.514Z,7.90
2017-12-23T02:12:20.956Z,7.80
2017-12-23T02:14:49.151Z,7.60
2017-12-23T02:17:16.592Z,7.60
2017-12-23T02:19:44.817Z,7.70
2017-12-23T02:22:12.237Z,7.70
2017-12-23T02:24:39.668Z,7.70
2017-12-23T02:27:07.881Z,7.60
2017-12-23T02:29:35.307Z,7.60
2017-12-23T02:32:03.524Z,7.70
2017-12-23T02:34:30.948Z,7.60
2017-12-23T02:36:58.382Z,7.60
2017-12-23T02:39:25.831Z,7.70
2017-12-23T02:41:53.271Z,7.70
2017-12-23T02:44:20.709Z,7.70
2017-12-23T02:46:48.185Z,7.70
2017-12-23T02:49:15.616Z,7.80
2017-12-23T02:51:43.055Z,7.80
2017-12-23T02:54:10.492Z,7.80
2017-12-23T02:56:38.694Z,7.70
2017-12-23T02:59:06.140Z,7.70
2017-12-23T03:01:34.333Z,7.80
2017-12-23T03:04:02.786Z,7.70
2017-12-23T03:06:30.971Z,7.70
2017-12-23T03:08:58.408Z,7.70
2017-12-23T03:11:26.615Z,7.60
2017-12-23T03:13:54.088Z,7.60
2017-12-23T03:16:21.521Z,7.60
2017-12-23T03:18:48.963Z,7.70
2017-12-23T03:21:17.159Z,7.80
2017-12-23T03:23:44.574Z,7.80
2017-12-23T03:26:12.023Z,7.80
2017-12-23T03:28:39.444Z,7.60
2017-12-23T03:31:06.886Z,7.80
2017-12-23T03:33:34.308Z,7.70
2017-12-23T03:36:02.513Z,7.80
2017-12-23T03:38:29.948Z,7.80
2017-12-23T03:40:58.157Z,7.80
2017-12-23T03:43:25.588Z,7.80
2017-12-23T03:45:53.787Z,7.90
2017-12-23T03:48:21.229Z,7.90
2017-12-23T03:50:48.666Z,7.80
2017-12-23T03:53:16.864Z,7.80
2017-12-23T03:55:44.336Z,7.80
2017-12-23T03:58:11.771Z,7.90
2017-12-23T04:00:39.200Z,7.90
2017-12-23T04:03:06.628Z,7.90
2017-12-23T04:05:34.055Z,7.90
2017-12-23T04:08:01.496Z,7.90
2017-12-23T04:10:28.923Z,7.90
2017-12-23T04:12:56.356Z,7.90
2017-12-23T04:15:23.794Z,7.90
2017-12-23T04:17:51.222Z,7.90
2017-12-23T04:20:18.643Z,8.00
2017-12-23T04:22:46.081Z,8.00
2017-12-23T04:25:13.521Z,8.00
2017-12-23T04:27:40.951Z,8.10
2017-12-23T04:30:08.388Z,8.10
2017-12-23T04:32:36.604Z,8.10
2017-12-23T04:35:04.029Z,8.10
2017-12-23T04:37:31.472Z,8.10
2017-12-23T04:39:59.675Z,8.10
2017-12-23T04:42:27.110Z,8.10
2017-12-23T04:44:55.314Z,8.00
2017-12-23T04:47:22.749Z,8.00
2017-12-23T04:49:50.184Z,8.00
2017-12-23T04:52:18.380Z,8.10
2017-12-23T04:54:45.821Z,8.10
2017-12-23T04:57:14.027Z,8.10
2017-12-23T04:59:41.464Z,8.10
2017-12-23T05:02:08.900Z,8.10
2017-12-23T05:04:37.100Z,8.20
2017-12-23T05:07:04.532Z,8.20
2017-12-23T05:09:32.746Z,8.30
2017-12-23T05:12:00.172Z,8.30
2017-12-23T05:14:28.368Z,8.20
2017-12-23T05:16:55.849Z,8.10
2017-12-23T05:19:23.284Z,8.20
2017-12-23T05:21:51.720Z,8.20
2017-12-23T05:24:19.144Z,8.10
2017-12-23T05:26:46.583Z,8.10
2017-12-23T05:29:14.020Z,8.20
2017-12-23T05:31:41.455Z,8.20
2017-12-23T05:34:09.652Z,8.30
2017-12-23T05:36:37.087Z,8.20
2017-12-23T05:39:05.288Z,8.30
2017-12-23T05:41:32.742Z,8.30
2017-12-23T05:44:00.163Z,8.20
2017-12-23T05:46:27.606Z,8.20
2017-12-23T05:48:55.032Z,8.20
2017-12-23T05:51:22.484Z,8.30
2017-12-23T05:53:49.917Z,8.30
2017-12-23T05:56:17.339Z,8.20
2017-12-23T05:58:44.779Z,8.30
2017-12-23T06:01:12.267Z,8.20
2017-12-23T06:03:40.546Z,8.20
2017-12-23T06:06:08.742Z,8.30
2017-12-23T06:08:36.178Z,8.30
2017-12-23T06:11:04.388Z,8.30
2017-12-23T06:13:31.909Z,8.30
2017-12-23T06:16:00.182Z,8.30
2017-12-23T06:18:27.612Z,8.30
2017-12-23T06:20:55.040Z,8.30
2017-12-23T06:23:22.485Z,8.30
2017-12-23T06:25:49.904Z,8.30
2017-12-23T06:28:17.384Z,8.40
2017-12-23T06:30:44.811Z,8.40
2017-12-23T06:33:12.253Z,8.40
2017-12-23T06:35:39.692Z,8.30
2017-12-23T06:38:07.141Z,8.30
2017-12-23T06:40:34.575Z,8.30
2017-12-23T06:43:02.003Z,8.30
2017-12-23T06:45:29.465Z,8.20
2017-12-23T06:47:57.664Z,8.30
2017-12-23T06:50:25.099Z,8.30
2017-12-23T06:52:53.296Z,8.30
2017-12-23T06:55:20.740Z,8.30
2017-12-23T06:57:48.929Z,8.30
2017-12-23T07:00:16.368Z,8.30
2017-12-23T07:02:44.579Z,8.40
2017-12-23T07:05:12.017Z,8.40
2017-12-23T07:07:39.435Z,8.40
2017-12-23T07:10:06.871Z,8.40
2017-12-23T07:12:34.294Z,8.50
2017-12-23T07:15:01.731Z,8.50
2017-12-23T07:17:29.927Z,8.60
2017-12-23T07:19:57.359Z,8.60
2017-12-23T07:22:25.582Z,8.60
2017-12-23T07:24:53.004Z,8.60
2017-12-23T07:27:20.440Z,8.60
2017-12-23T07:29:48.640Z,8.60
2017-12-23T07:32:16.073Z,8.60
2017-12-23T07:34:44.255Z,8.60
2017-12-23T07:37:12.455Z,8.70
2017-12-23T07:39:39.890Z,8.70
2017-12-23T07:42:08.147Z,8.70
2017-12-23T07:44:35.645Z,8.70
2017-12-23T07:47:03.831Z,8.80
2017-12-23T07:49:31.260Z,8.80
2017-12-23T07:51:58.734Z,8.80
2017-12-23T07:54:26.159Z,8.80
2017-12-23T07:56:54.361Z,8.80
2017-12-23T07:59:21.789Z,8.80
2017-12-23T08:01:50.043Z,8.80
2017-12-23T08:04:17.529Z,8.80
2017-12-23T08:06:45.724Z,8.90
2017-12-23T08:09:13.155Z,8.80
2017-12-23T08:11:40.588Z,8.90
2017-12-23T08:14:08.033Z,8.80
2017-12-23T08:16:35.478Z,8.90
2017-12-23T08:19:02.917Z,8.90
2017-12-23T08:21:30.355Z,8.90
2017-12-23T08:23:58.632Z,9.00
2017-12-23T08:26:26.839Z,9.00
2017-12-23T08:28:54.283Z,9.00
2017-12-23T08:31:21.713Z,9.00
2017-12-23T08:33:49.928Z,9.00
2017-12-23T08:36:17.368Z,9.10
2017-12-23T08:38:44.787Z,9.10
2017-12-23T08:41:12.211Z,9.10
2017-12-23T08:43:39.671Z,9.10
2017-12-23T08:46:07.172Z,9.20
2017-12-23T08:48:35.396Z,9.20
2017-12-23T08:51:02.828Z,9.20
2017-12-23T08:53:30.266Z,9.20
2017-12-23T08:55:58.543Z,9.30
2017-12-23T08:58:26.740Z,9.30
2017-12-23T09:00:54.171Z,9.30
2017-12-23T09:03:22.359Z,9.30
2017-12-23T09:05:49.796Z,9.30
2017-12-23T09:08:17.991Z,9.30
2017-12-23T09:10:45.427Z,9.30
2017-12-23T09:13:14.447Z,9.40
2017-12-23T09:15:41.887Z,9.40
2017-12-23T09:18:10.081Z,9.30
2017-12-23T09:20:37.521Z,9.30
2017-12-23T09:23:05.720Z,9.30
2017-12-23T09:25:35.344Z,9.30
2017-12-23T09:28:02.773Z,9.40
2017-12-23T09:30:30.200Z,9.30
2017-12-23T09:32:58.479Z,9.30
2017-12-23T09:35:25.896Z,9.40
2017-12-23T09:37:53.345Z,9.40
2017-12-23T09:40:20.763Z,9.40
2017-12-23T09:42:48.973Z,9.50
2017-12-23T09:45:16.399Z,9.50
2017-12-23T09:47:45.574Z,9.60
2017-12-23T09:50:13.023Z,9.50
2017-12-23T09:52:40.469Z,9.60
2017-12-23T09:55:07.900Z,9.60
2017-12-23T09:57:35.362Z,9.60
2017-12-23T10:00:02.797Z,9.60
2017-12-23T10:02:30.218Z,9.60
2017-12-23T10:04:57.663Z,9.60
2017-12-23T10:07:25.091Z,9.70
2017-12-23T10:09:52.588Z,9.70
2017-12-23T10:12:19.956Z,9.70
2017-12-23T10:14:48.171Z,9.70
2017-12-23T10:17:15.637Z,9.70
2017-12-23T10:19:43.040Z,9.70
2017-12-23T10:22:11.227Z,9.80
2017-12-23T10:24:39.436Z,9.80
2017-12-23T10:27:06.877Z,9.70
2017-12-23T10:29:34.301Z,9.80
2017-12-23T10:32:01.736Z,9.80
2017-12-23T10:34:29.179Z,9.70
2017-12-23T10:36:56.605Z,9.80
2017-12-23T10:39:24.030Z,9.70
2017-12-23T10:41:52.224Z,9.70
2017-12-23T10:44:19.655Z,9.70
2017-12-23T10:46:47.087Z,9.80
2017-12-23T10:49:14.519Z,9.70
2017-12-23T10:51:41.942Z,9.70
2017-12-23T10:54:10.141Z,9.70
2017-12-23T10:56:37.576Z,9.60
2017-12-23T10:59:05.768Z,9.70
2017-12-23T11:01:33.200Z,9.70
2017-12-23T11:04:01.396Z,9.70
2017-12-23T11:06:28.828Z,9.70
2017-12-23T11:08:57.012Z,9.80
2017-12-23T11:11:25.204Z,9.80
2017-12-23T11:13:52.628Z,9.80
2017-12-23T11:16:20.091Z,9.80
2017-12-23T11:18:48.283Z,9.90
2017-12-23T11:21:16.477Z,9.90
2017-12-23T11:23:43.904Z,9.90
2017-12-23T11:26:12.087Z,9.90
2017-12-23T11:28:39.528Z,9.90
2017-12-23T11:31:07.722Z,9.90
2017-12-23T11:33:35.158Z,9.90
2017-12-23T11:36:02.616Z,9.90
2017-12-23T11:38:30.032Z,10.00
2017-12-23T11:40:57.456Z,9.90
2017-12-23T11:43:24.883Z,10.00
2017-12-23T11:45:53.084Z,10.00
2017-12-23T11:48:20.524Z,10.00
2017-12-23T11:50:48.714Z,10.00
2017-12-23T11:53:16.143Z,9.90
2017-12-23T11:55:44.344Z,10.00
2017-12-23T11:58:11.790Z,10.00
2017-12-23T12:00:39.986Z,10.10
2017-12-23T12:03:08.437Z,10.10
2017-12-23T12:05:36.621Z,9.90
2017-12-23T12:08:04.855Z,9.90
2017-12-23T12:10:32.280Z,9.90
2017-12-23T12:12:59.719Z,10.00
2017-12-23T12:15:27.147Z,9.90
2017-12-23T12:17:54.589Z,10.00
2017-12-23T12:20:22.075Z,10.10
2017-12-23T12:22:49.468Z,10.00
2017-12-23T12:25:16.898Z,10.10
2017-12-23T12:27:44.327Z,10.10
2017-12-23T12:30:12.719Z,10.20
2017-12-23T12:32:40.903Z,10.30
2017-12-23T12:35:09.109Z,10.20
2017-12-23T12:37:36.543Z,10.20
2017-12-23T12:40:05.092Z,10.20
2017-12-23T12:42:32.529Z,10.20
2017-12-23T12:44:59.967Z,10.20
2017-12-23T12:47:27.398Z,10.10
2017-12-23T12:49:56.136Z,10.10
2017-12-23T12:52:23.638Z,10.00
2017-12-23T12:54:51.856Z,10.00
2017-12-23T12:57:19.297Z,10.10
2017-12-23T12:59:46.722Z,10.00
2017-12-23T13:02:14.908Z,9.90
2017-12-23T13:04:42.332Z,9.90
2017-12-23T13:07:09.750Z,9.90
2017-12-23T13:09:37.174Z,10.00
2017-12-23T13:12:04.608Z,10.00
2017-12-23T13:14:32.825Z,10.00
2017-12-23T13:17:00.233Z,10.00
2017-12-23T13:19:27.656Z,10.00
2017-12-23T13:21:56.120Z,10.00
2017-12-23T13:24:23.530Z,9.90
2017-12-23T13:26:50.961Z,9.90
2017-12-23T13:29:18.385Z,9.80
2017-12-23T13:31:45.807Z,9.80
2017-12-23T13:34:14.010Z,9.90
2017-12-23T13:36:41.438Z,9.90
2017-12-23T13:39:09.627Z,9.80
2017-12-23T13:41:37.807Z,9.90
2017-12-23T13:44:05.239Z,9.90
2017-12-23T13:46:33.424Z,9.80
2017-12-23T13:49:01.624Z,9.80
2017-12-23T13:51:29.036Z,9.80
2017-12-23T13:53:56.622Z,9.80
2017-12-23T13:56:24.807Z,9.80
2017-12-23T13:58:52.227Z,9.80
2017-12-23T14:01:19.651Z,9.90
2017-12-23T14:03:47.076Z,9.90
2017-12-23T14:06:14.500Z,9.90
2017-12-23T14:08:41.928Z,10.00
2017-12-23T14:11:09.340Z,9.90
2017-12-23T14:13:36.772Z,9.90
2017-12-23T14:16:04.192Z,9.90
2017-12-23T14:18:31.612Z,9.90
2017-12-23T14:20:59.072Z,9.90
2017-12-23T14:23:26.491Z,10.00
2017-12-23T14:25:53.954Z,10.00
2017-12-23T14:28:21.384Z,10.00
2017-12-23T14:30:48.818Z,9.90
2017-12-23T14:33:16.244Z,10.00
2017-12-23T14:35:44.486Z,10.00
2017-12-23T14:38:11.987Z,10.00
2017-12-23T14:40:39.363Z,10.00
2017-12-23T14:43:06.764Z,10.00
2017-12-23T14:45:34.201Z,9.90
2017-12-23T14:48:01.634Z,9.90
2017-12-23T14:50:29.059Z,9.90
2017-12-23T14:52:57.265Z,10.00
2017-12-23T14:55:24.691Z,9.90
2017-12-23T14:57:52.877Z,9.90
2017-12-23T15:00:20.309Z,9.90
2017-12-23T15:02:48.512Z,9.90
2017-12-23T15:05:15.930Z,9.90
2017-12-23T15:07:43.351Z,9.90
2017-12-23T15:10:10.786Z,9.80
2017-12-23T15:12:38.208Z,9.80
2017-12-23T15:15:05.624Z,9.80
2017-12-23T15:17:33.050Z,9.70
2017-12-23T15:20:00.475Z,9.70
2017-12-23T15:22:27.899Z,9.80
2017-12-23T15:24:55.324Z,9.80
2017-12-23T15:27:22.750Z,9.80
2017-12-23T15:29:50.931Z,9.80
2017-12-23T15:32:19.122Z,9.80
2017-12-23T15:34:46.539Z,9.80
2017-12-23T15:37:14.005Z,9.80
2017-12-23T15:39:41.414Z,9.80
2017-12-23T15:42:08.926Z,9.70
2017-12-23T15:44:36.324Z,9.70
2017-12-23T15:47:03.783Z,9.60
2017-12-23T15:49:31.209Z,9.60
2017-12-23T15:51:59.402Z,9.70
2017-12-23T15:54:26.828Z,9.70
2017-12-23T15:56:54.552Z,9.60
2017-12-23T15:59:21.978Z,9.70
2017-12-23T16:01:49.400Z,9.70
2017-12-23T16:04:17.589Z,9.70
2017-12-23T16:06:45.790Z,9.60
2017-12-23T16:09:13.226Z,9.70
2017-12-23T16:11:41.405Z,9.60
2017-12-23T16:14:08.827Z,9.60
2017-12-23T16:16:36.263Z,9.60
2017-12-23T16:19:03.932Z,9.60
2017-12-23T16:21:31.360Z,9.60
2017-12-23T16:23:59.720Z,9.60
2017-12-23T16:26:27.143Z,9.70
2017-12-23T16:28:54.631Z,9.70
2017-12-23T16:31:22.123Z,9.70
2017-12-23T16:33:49.612Z,9.70
2017-12-23T16:36:17.069Z,9.70
2017-12-23T16:38:44.476Z,9.60
2017-12-23T16:41:11.896Z,9.60
2017-12-23T16:43:40.145Z,9.70
2017-12-23T16:46:07.626Z,9.60
2017-12-23T16:48:35.051Z,9.70
2017-12-23T16:51:02.577Z,9.70
2017-12-23T16:53:29.991Z,9.70
2017-12-23T16:55:57.419Z,9.70
2017-12-23T16:58:24.843Z,9.70
2017-12-23T17:00:52.297Z,9.70
2017-12-23T17:03:19.699Z,9.70
2017-12-23T17:05:47.125Z,9.70
2017-12-23T17:08:14.545Z,9.70
2017-12-23T17:10:42.744Z,9.60
2017-12-23T17:13:10.170Z,9.60
2017-12-23T17:15:37.584Z,9.60
2017-12-23T17:18:05.012Z,9.60
2017-12-23T17:20:32.432Z,9.50
2017-12-23T17:22:59.896Z,9.60
2017-12-23T17:25:27.307Z,9.50
2017-12-23T17:27:54.747Z,9.60
2017-12-23T17:30:32.021Z,9.60
2017-12-23T17:33:00.224Z,9.50
2017-12-23T17:35:27.642Z,9.50
2017-12-23T17:37:55.833Z,9.60
2017-12-23T17:40:23.255Z,9.60
2017-12-23T17:42:50.680Z,9.60
2017-12-23T17:45:18.103Z,9.50
2017-12-23T17:47:45.558Z,9.60
2017-12-23T17:50:12.972Z,9.60
2017-12-23T17:52:40.396Z,9.60
2017-12-23T17:55:07.829Z,9.60
2017-12-23T17:57:35.273Z,9.60
2017-12-23T18:00:04.657Z,9.60
2017-12-23T18:02:32.214Z,9.50
2017-12-23T18:04:59.644Z,9.50
2017-12-23T18:07:27.071Z,9.50
2017-12-23T18:09:54.511Z,9.50
2017-12-23T18:12:21.935Z,9.50
2017-12-23T18:14:49.360Z,9.50
2017-12-23T18:17:16.801Z,9.40
2017-12-23T18:19:44.282Z,9.50
2017-12-23T18:22:11.713Z,9.50
2017-12-23T18:24:39.184Z,9.50
2017-12-23T18:27:06.612Z,9.50
2017-12-23T18:29:34.039Z,9.50
2017-12-23T18:32:01.460Z,9.50
2017-12-23T18:34:28.883Z,9.50
2017-12-23T18:36:56.316Z,9.60
2017-12-23T18:39:24.506Z,9.60
2017-12-23T18:41:52.701Z,9.60
2017-12-23T18:44:20.133Z,9.60
2017-12-23T18:46:48.336Z,9.60
2017-12-23T18:49:15.760Z,9.60
2017-12-23T18:51:44.242Z,9.60
2017-12-23T18:54:11.675Z,9.50
2017-12-23T18:56:39.105Z,9.60
2017-12-23T18:59:06.550Z,9.50
2017-12-23T19:01:33.977Z,9.60
2017-12-23T19:04:02.160Z,9.60
2017-12-23T19:06:29.587Z,9.60
2017-12-23T19:08:57.788Z,9.60
2017-12-23T19:11:25.228Z,9.60
2017-12-23T19:13:53.420Z,9.60
2017-12-23T19:19:20.452Z,9.50
2017-12-23T19:21:47.925Z,9.50
2017-12-23T19:24:16.128Z,9.50
2017-12-23T19:27:02.569Z,9.50
2017-12-23T19:29:30.008Z,9.50
2017-12-23T19:32:04.463Z,9.60
2017-12-23T19:34:35.712Z,9.50
2017-12-23T19:37:03.135Z,9.50
2017-12-23T19:39:30.568Z,9.60
2017-12-23T19:41:57.987Z,9.50
2017-12-23T19:44:25.411Z,9.50
2017-12-23T19:46:52.851Z,9.50
2017-12-23T19:49:20.263Z,9.50
2017-12-23T19:51:48.459Z,9.60
2017-12-23T19:54:15.881Z,9.50
2017-12-23T19:56:43.320Z,9.60
2017-12-23T19:59:10.749Z,9.50
2017-12-23T20:01:38.193Z,9.60
2017-12-23T20:04:05.607Z,9.50
2017-12-23T20:06:33.049Z,9.60
2017-12-23T20:09:00.475Z,9.60
2017-12-23T20:11:27.960Z,9.60
2017-12-23T20:13:56.096Z,9.60
2017-12-23T20:16:23.523Z,9.60
2017-12-23T20:18:50.951Z,9.60
2017-12-23T20:21:20.398Z,9.60
2017-12-23T20:23:48.587Z,9.60
2017-12-23T20:26:16.016Z,9.60
2017-12-23T20:28:44.196Z,9.60
2017-12-23T20:31:12.384Z,9.60
2017-12-23T20:33:39.808Z,9.60
2017-12-23T20:36:07.240Z,9.60
2017-12-23T20:38:34.669Z,9.60
2017-12-23T20:41:03.115Z,9.60
2017-12-23T20:43:30.595Z,9.60
2017-12-23T20:45:58.024Z,9.60
2017-12-23T20:48:26.220Z,9.60
2017-12-23T20:50:53.639Z,9.60
2017-12-23T20:53:21.069Z,9.60
2017-12-23T20:55:48.514Z,9.60
2017-12-23T20:58:15.952Z,9.60
2017-12-23T21:00:43.416Z,9.60
2017-12-23T21:03:10.856Z,9.60
2017-12-23T21:05:38.292Z,9.60
2017-12-23T21:08:05.727Z,9.60
2017-12-23T21:10:33.153Z,9.60
2017-12-23T21:13:00.580Z,9.50
2017-12-23T21:15:28.785Z,9.60
2017-12-23T21:17:56.207Z,9.50
2017-12-23T21:20:24.401Z,9.50
2017-12-23T21:22:51.827Z,9.50
2017-12-23T21:25:19.243Z,9.60
2017-12-23T21:27:46.685Z,9.60
2017-12-23T21:30:14.100Z,9.60
2017-12-23T21:32:42.311Z,9.60
2017-12-23T21:35:09.728Z,9.60
2017-12-23T21:37:39.943Z,9.60
2017-12-23T21:40:07.383Z,9.60
2017-12-23T21:42:34.813Z,9.50
2017-12-23T21:45:02.271Z,9.50
2017-12-23T21:47:29.687Z,9.50
2017-12-23T21:49:57.892Z,9.50
2017-12-23T21:52:25.316Z,9.50
2017-12-23T21:54:53.511Z,9.40
2017-12-23T21:57:20.937Z,9.40
2017-12-23T21:59:48.373Z,9.40
2017-12-23T22:02:15.797Z,9.50
2017-12-23T22:04:43.233Z,9.40
2017-12-23T22:07:10.660Z,9.40
2017-12-23T22:09:38.102Z,9.50
2017-12-23T22:12:05.510Z,9.50
2017-12-23T22:14:32.940Z,9.50
2017-12-23T22:17:01.127Z,9.50
2017-12-23T22:19:28.559Z,9.50
2017-12-23T22:21:56.015Z,9.50
2017-12-23T22:24:23.453Z,9.50
2017-12-23T22:26:50.885Z,9.40
2017-12-23T22:29:18.303Z,9.40
2017-12-23T22:31:45.722Z,9.40
2017-12-23T22:34:13.154Z,9.50
2017-12-23T22:36:40.575Z,9.50
2017-12-23T22:39:08.767Z,9.50
2017-12-23T22:41:36.190Z,9.50
2017-12-23T22:44:03.619Z,9.50
2017-12-23T22:46:31.053Z,9.50
2017-12-23T22:48:58.469Z,9.50
2017-12-23T22:51:26.663Z,9.50
2017-12-23T22:53:54.096Z,9.40
2017-12-23T22:56:22.300Z,9.40
2017-12-23T22:58:49.716Z,9.40
2017-12-23T23:01:17.156Z,9.40
2017-12-23T23:03:44.579Z,9.40
2017-12-23T23:06:12.014Z,9.30
2017-12-23T23:08:40.202Z,9.40
2017-12-23T23:11:07.630Z,9.30
2017-12-23T23:13:35.811Z,9.30
2017-12-23T23:16:04.057Z,9.40
2017-12-23T23:18:31.447Z,9.40
2017-12-23T23:20:59.652Z,9.30
2017-12-23T23:23:27.074Z,9.30
2017-12-23T23:25:55.272Z,9.30
2017-12-23T23:28:22.709Z,9.20
2017-12-23T23:30:50.915Z,9.20
2017-12-23T23:33:18.331Z,9.20
2017-12-23T23:35:45.756Z,9.20
2017-12-23T23:38:13.192Z,9.20
2017-12-23T23:40:40.629Z,9.20
2017-12-23T23:43:12.361Z,9.30
2017-12-23T23:45:40.559Z,9.30
2017-12-23T23:48:07.983Z,9.30
2017-12-23T23:50:36.176Z,9.20
2017-12-23T23:53:04.379Z,9.20
2017-12-23T23:55:31.795Z,9.20
2017-12-23T23:57:59.982Z,9.20
